Time;durP1;ratioP1;P1;durP2;ratioP2;P2;SDS_P1;SDS_P2;PMS_P1;PMS_P2;Temp;Humidity;BMP_temperature;BMP_pressure;BME280_temperature;BME280_humidity;BME280_pressure;Samples;Min_cycle;Max_cycle;Signal;HPM_P1;HPM_P2
2023/07/05 00:01:16;;;;;;;;;;;;;;;17.18;36.94;100448.22;4943275;28;98415;-65
2023/07/05 00:03:42;;;;;;;;;;;;;;;17.17;37.06;100437.63;4928318;28;97943;-65
2023/07/05 00:06:08;;;;;;;;;;;;;;;17.15;37.11;100443.41;4928748;28;98391;-69
2023/07/05 00:08:36;;;;;;;;;;;;;;;17.15;37.13;100437.16;4943400;27;98127;-69
2023/07/05 00:11:04;;;;;;;;;;;;;;;17.12;37.06;100438.56;4929534;28;98144;-69
2023/07/05 00:13:30;;;;;;;;;;;;;;;17.12;37.08;100443.22;4939013;28;98087;-69
2023/07/05 00:15:58;;;;;;;;;;;;;;;17.09;36.99;100427.50;4928051;27;100487;-65
2023/07/05 00:18:25;;;;;;;;;;;;;;;17.07;37.11;100427.81;4919885;28;98129;-65
2023/07/05 00:20:52;;;;;;;;;;;;;;;17.06;37.11;100430.84;4945655;27;98963;-65
2023/07/05 00:23:19;;;;;;;;;;;;;;;17.05;37.23;100427.31;4929945;27;98070;-65
2023/07/05 00:25:45;;;;;;;;;;;;;;;17.04;37.16;100422.19;4923576;27;100280;-65
2023/07/05 00:28:12;;;;;;;;;;;;;;;17.03;37.05;100417.84;4929084;27;98333;-69
2023/07/05 00:30:41;;;;;;;;;;;;;;;17.02;37.24;100413.53;4927600;27;98451;-66
2023/07/05 00:33:07;;;;;;;;;;;;;;;17.01;37.21;100412.72;4923060;28;98689;-69
2023/07/05 00:35:33;;;;;;;;;;;;;;;17.00;37.07;100413.81;4926450;28;98359;-69
2023/07/05 00:38:00;;;;;;;;;;;;;;;16.99;37.17;100409.50;4929191;27;98146;-69
2023/07/05 00:40:26;;;;;;;;;;;;;;;16.97;37.20;100406.28;4930301;28;98844;-65
2023/07/05 00:42:52;;;;;;;;;;;;;;;16.94;37.28;100401.47;4932081;27;97867;-69
2023/07/05 00:45:18;;;;;;;;;;;;;;;16.92;37.04;100403.69;4943816;28;105117;-65
2023/07/05 00:47:44;;;;;;;;;;;;;;;16.90;37.23;100397.78;4956029;27;98942;-65
2023/07/05 00:50:24;;;;;;;;;;;;;;;16.89;37.18;100398.88;4931439;28;98193;-65
2023/07/05 00:52:50;;;;;;;;;;;;;;;16.87;37.33;100395.66;4931000;27;98115;-69
2023/07/05 00:55:17;;;;;;;;;;;;;;;16.88;37.27;100400.00;4922855;27;98151;-65
2023/07/05 00:57:43;;;;;;;;;;;;;;;16.85;37.33;100398.69;4940196;27;98459;-69
2023/07/05 01:00:15;;;;;;;;;;;;;;;16.84;37.41;100399.00;4944185;28;98415;-69
2023/07/05 01:02:42;;;;;;;;;;;;;;;16.79;37.19;100399.94;4945193;27;98256;-65
2023/07/05 01:05:10;;;;;;;;;;;;;;;16.78;37.34;100394.78;4925625;28;97914;-65
2023/07/05 01:07:36;;;;;;;;;;;;;;;16.75;37.39;100388.06;4920737;28;98195;-69
2023/07/05 01:10:02;;;;;;;;;;;;;;;16.74;37.39;100380.19;4936640;28;98430;-65
2023/07/05 01:12:40;;;;;;;;;;;;;;;16.74;37.26;100388.34;4920823;28;98173;-65
2023/07/05 01:15:15;;;;;;;;;;;;;;;16.71;37.36;100375.38;4933424;28;98939;-65
2023/07/05 01:17:58;;;;;;;;;;;;;;;16.68;37.22;100382.22;4939019;28;98420;-69
2023/07/05 01:20:33;;;;;;;;;;;;;;;16.64;37.36;100379.31;4934606;28;98580;-65
2023/07/05 01:23:02;;;;;;;;;;;;;;;16.68;37.28;100379.50;4938386;28;98032;-69
2023/07/05 01:26:01;;;;;;;;;;;;;;;16.73;37.33;100381.28;4954884;28;98092;-69
2023/07/05 01:28:49;;;;;;;;;;;;;;;16.79;37.45;100375.44;4933066;28;98339;-69
2023/07/05 01:31:43;;;;;;;;;;;;;;;16.82;37.30;100371.28;4949168;28;99241;-69
2023/07/05 01:34:20;;;;;;;;;;;;;;;16.85;37.42;100363.28;4933320;28;98020;-65
2023/07/05 01:36:47;;;;;;;;;;;;;;;16.89;37.46;100366.19;4951522;28;98161;-69
2023/07/05 01:39:13;;;;;;;;;;;;;;;16.90;37.37;100365.09;4922814;28;98060;-65
2023/07/05 01:41:39;;;;;;;;;;;;;;;16.92;37.33;100366.38;4927250;28;98107;-66
2023/07/05 01:44:06;;;;;;;;;;;;;;;16.93;37.38;100354.38;4922201;28;98902;-69
2023/07/05 01:46:56;;;;;;;;;;;;;;;16.93;37.32;100348.94;4924338;28;98394;-65
2023/07/05 01:49:36;;;;;;;;;;;;;;;16.92;37.53;100344.59;4941959;28;98286;-65
2023/07/05 01:52:02;;;;;;;;;;;;;;;16.91;37.44;100340.28;4936365;28;98023;-65
2023/07/05 01:54:31;;;;;;;;;;;;;;;16.91;37.58;100337.56;4955005;28;98488;-69
2023/07/05 01:57:10;;;;;;;;;;;;;;;16.92;37.48;100325.53;4939054;28;97969;-70
2023/07/05 01:59:43;;;;;;;;;;;;;;;16.91;37.44;100328.59;4928532;28;98106;-65
2023/07/05 02:02:10;;;;;;;;;;;;;;;16.92;37.55;100317.38;4923851;28;98061;-65
2023/07/05 02:04:36;;;;;;;;;;;;;;;16.92;37.42;100320.09;4930654;28;98060;-69
2023/07/05 02:07:06;;;;;;;;;;;;;;;16.93;37.58;100315.47;4925001;28;98025;-70
2023/07/05 02:09:37;;;;;;;;;;;;;;;16.93;37.53;100310.00;4921342;28;97938;-65
2023/07/05 02:12:04;;;;;;;;;;;;;;;16.93;37.40;100304.56;4940530;28;99645;-65
2023/07/05 02:14:31;;;;;;;;;;;;;;;16.93;37.17;100301.84;4926173;28;98002;-69
2023/07/05 02:16:57;;;;;;;;;;;;;;;16.94;37.46;100298.03;4927708;28;98097;-68
2023/07/05 02:19:24;;;;;;;;;;;;;;;16.94;37.63;100295.31;4940315;28;98286;-69
2023/07/05 02:21:51;;;;;;;;;;;;;;;16.93;37.52;100297.19;4926462;28;98020;-70
2023/07/05 02:24:17;;;;;;;;;;;;;;;16.95;37.46;100288.75;4924909;28;98534;-65
2023/07/05 02:26:44;;;;;;;;;;;;;;;16.95;37.35;100282.50;4924314;28;101040;-65
2023/07/05 02:29:10;;;;;;;;;;;;;;;16.95;37.54;100280.56;4933900;28;97920;-69
2023/07/05 02:31:36;;;;;;;;;;;;;;;16.95;37.54;100277.84;4920704;28;98074;-68
2023/07/05 02:34:03;;;;;;;;;;;;;;;16.95;37.62;100280.56;4938793;28;98184;-65
2023/07/05 02:36:29;;;;;;;;;;;;;;;16.94;37.59;100281.69;4942202;28;98781;-65
2023/07/05 02:38:55;;;;;;;;;;;;;;;16.95;37.56;100274.31;4934592;28;98987;-65
2023/07/05 02:41:22;;;;;;;;;;;;;;;16.95;37.43;100277.84;4919480;28;98235;-69
2023/07/05 02:43:50;;;;;;;;;;;;;;;16.95;37.52;100266.97;4922161;28;98452;-65
2023/07/05 02:46:16;;;;;;;;;;;;;;;16.94;37.44;100265.34;4926560;28;97986;-69
2023/07/05 02:48:45;;;;;;;;;;;;;;;16.92;37.52;100262.94;4925090;28;98507;-65
2023/07/05 02:51:11;;;;;;;;;;;;;;;16.90;37.62;100254.28;4925994;28;98178;-69
2023/07/05 02:53:38;;;;;;;;;;;;;;;16.91;37.68;100255.09;4927954;28;97924;-65
2023/07/05 02:56:04;;;;;;;;;;;;;;;16.89;37.60;100244.50;4944826;28;98497;-69
2023/07/05 02:58:31;;;;;;;;;;;;;;;16.89;37.45;100246.44;4924122;28;98273;-69
2023/07/05 03:00:57;;;;;;;;;;;;;;;16.87;37.48;100241.31;4928696;28;98320;-65
2023/07/05 03:03:26;;;;;;;;;;;;;;;16.86;37.54;100241.63;4926295;28;99153;-69
2023/07/05 03:05:59;;;;;;;;;;;;;;;16.87;37.49;100245.94;4928684;28;97883;-69
2023/07/05 03:08:26;;;;;;;;;;;;;;;16.86;37.49;100241.63;4930091;28;98473;-65
2023/07/05 03:10:53;;;;;;;;;;;;;;;16.84;37.70;100241.13;4927612;28;97989;-65
2023/07/05 03:13:20;;;;;;;;;;;;;;;16.82;37.55;100238.72;4929591;28;99493;-65
2023/07/05 03:15:47;;;;;;;;;;;;;;;16.82;37.51;100235.19;4922947;28;98219;-65
2023/07/05 03:18:13;;;;;;;;;;;;;;;16.82;37.62;100240.63;4926300;28;98201;-69
2023/07/05 03:20:39;;;;;;;;;;;;;;;16.81;37.53;100234.38;4926078;28;98371;-69
2023/07/05 03:23:06;;;;;;;;;;;;;;;16.82;37.45;100237.91;4942660;28;99896;-65
2023/07/05 03:25:33;;;;;;;;;;;;;;;16.81;37.88;100233.59;4928263;28;98187;-65
2023/07/05 03:28:00;;;;;;;;;;;;;;;16.82;37.58;100241.47;4926440;28;100310;-69
2023/07/05 03:30:27;;;;;;;;;;;;;;;16.83;37.59;100225.91;4925170;28;98281;-70
2023/07/05 03:32:53;;;;;;;;;;;;;;;16.84;37.69;100228.31;4929422;28;98103;-69
2023/07/05 03:35:20;;;;;;;;;;;;;;;16.85;37.50;100224.47;4917846;28;98265;-69
2023/07/05 03:37:46;;;;;;;;;;;;;;;16.86;37.50;100220.66;4944579;28;98230;-69
2023/07/05 03:40:12;;;;;;;;;;;;;;;16.87;37.47;100214.09;4938361;28;111117;-69
2023/07/05 03:42:38;;;;;;;;;;;;;;;16.89;37.63;100211.84;4926043;28;98040;-65
2023/07/05 03:45:05;;;;;;;;;;;;;;;16.92;37.50;100213.13;4921049;28;97991;-65
2023/07/05 03:47:31;;;;;;;;;;;;;;;16.95;37.60;100206.28;4937903;28;98294;-65
2023/07/05 03:49:57;;;;;;;;;;;;;;;16.97;37.45;100206.75;4924731;28;98192;-69
2023/07/05 03:52:23;;;;;;;;;;;;;;;17.00;37.43;100208.84;4924966;28;98050;-69
2023/07/05 03:54:50;;;;;;;;;;;;;;;17.04;37.45;100201.63;4941316;28;99602;-65
2023/07/05 03:57:17;;;;;;;;;;;;;;;17.06;37.41;100204.88;4925391;28;98414;-65
2023/07/05 03:59:43;;;;;;;;;;;;;;;17.15;37.43;100202.94;4924552;28;98167;-65
2023/07/05 04:02:09;;;;;;;;;;;;;;;17.21;37.43;100193.50;4932814;28;98007;-69
2023/07/05 04:04:35;;;;;;;;;;;;;;;17.29;37.46;100200.06;4924447;28;99863;-69
2023/07/05 04:07:02;;;;;;;;;;;;;;;17.34;37.35;100197.22;4926066;28;97974;-69
2023/07/05 04:09:28;;;;;;;;;;;;;;;17.38;37.35;100198.97;4937126;28;98175;-69
2023/07/05 04:11:54;;;;;;;;;;;;;;;17.40;37.30;100198.66;4939280;28;99671;-69
2023/07/05 04:14:21;;;;;;;;;;;;;;;17.41;37.32;100195.63;4939196;28;99300;-65
2023/07/05 04:16:48;;;;;;;;;;;;;;;17.45;37.42;100193.06;4926514;28;99503;-65
2023/07/05 04:19:15;;;;;;;;;;;;;;;17.47;37.32;100193.53;4925426;28;98142;-65
2023/07/05 04:21:42;;;;;;;;;;;;;;;17.50;37.30;100192.09;4941974;28;100032;-69
2023/07/05 04:24:08;;;;;;;;;;;;;;;17.52;37.44;100182.47;4923899;28;97953;-69
2023/07/05 04:26:34;;;;;;;;;;;;;;;17.58;37.24;100180.41;4918890;28;98248;-65
2023/07/05 04:29:00;;;;;;;;;;;;;;;17.66;37.26;100177.66;4942536;28;100157;-65
2023/07/05 04:31:28;;;;;;;;;;;;;;;17.74;37.23;100173.34;4933299;28;98204;-69
2023/07/05 04:33:55;;;;;;;;;;;;;;;17.83;37.29;100168.69;4924322;28;98077;-65
2023/07/05 04:36:21;;;;;;;;;;;;;;;17.96;36.99;100175.13;4942487;28;98275;-69
2023/07/05 04:38:47;;;;;;;;;;;;;;;18.12;37.10;100164.50;4922123;28;97993;-65
2023/07/05 04:41:14;;;;;;;;;;;;;;;18.35;36.91;100165.03;4939577;28;118276;-69
2023/07/05 04:43:40;;;;;;;;;;;;;;;18.54;36.90;100157.25;4924844;28;98603;-65
2023/07/05 04:46:06;;;;;;;;;;;;;;;18.73;36.87;100162.34;4937012;28;98020;-69
2023/07/05 04:48:32;;;;;;;;;;;;;;;18.88;36.67;100152.78;4945363;28;111243;-69
2023/07/05 04:50:59;;;;;;;;;;;;;;;19.02;36.63;100147.91;4938943;28;98053;-69
2023/07/05 04:53:28;;;;;;;;;;;;;;;19.16;36.80;100144.09;4958648;28;97877;-69
2023/07/05 04:55:56;;;;;;;;;;;;;;;19.30;36.68;100144.66;4940338;28;98660;-69
2023/07/05 04:58:22;;;;;;;;;;;;;;;19.41;36.55;100137.63;4926053;28;97923;-65
2023/07/05 05:00:51;;;;;;;;;;;;;;;19.55;36.70;100135.41;4928345;28;98220;-65
2023/07/05 05:03:20;;;;;;;;;;;;;;;19.72;36.61;100139.16;4923189;28;98338;-65
2023/07/05 05:05:53;;;;;;;;;;;;;;;19.84;36.43;100129.06;4937320;28;99827;-69
2023/07/05 05:08:20;;;;;;;;;;;;;;;19.93;36.60;100133.66;4926400;28;98415;-69
2023/07/05 05:10:51;;;;;;;;;;;;;;;19.99;36.63;100135.81;4923976;28;97908;-65
2023/07/05 05:13:17;;;;;;;;;;;;;;;20.02;36.49;100137.09;4956876;28;97909;-69
2023/07/05 05:15:43;;;;;;;;;;;;;;;20.02;36.74;100126.16;4926448;28;98183;-65
2023/07/05 05:18:10;;;;;;;;;;;;;;;20.00;36.73;100129.22;4920397;28;98350;-65
2023/07/05 05:20:39;;;;;;;;;;;;;;;20.00;36.79;100129.22;4943073;28;98621;-69
2023/07/05 05:23:06;;;;;;;;;;;;;;;20.04;36.80;100130.16;4925136;28;99818;-65
2023/07/05 05:25:32;;;;;;;;;;;;;;;20.12;36.71;100120.22;4927803;28;98023;-65
2023/07/05 05:27:58;;;;;;;;;;;;;;;20.26;36.70;100119.91;4921458;28;98759;-65
2023/07/05 05:30:24;;;;;;;;;;;;;;;20.42;36.48;100115.38;4913519;28;98131;-65
2023/07/05 05:32:50;;;;;;;;;;;;;;;20.55;36.53;100103.31;4922800;28;98718;-69
2023/07/05 05:35:17;;;;;;;;;;;;;;;20.64;36.42;100097.72;4923382;28;98115;-65
2023/07/05 05:37:44;;;;;;;;;;;;;;;20.80;36.38;100104.09;4937467;28;98362;-70
2023/07/05 05:40:12;;;;;;;;;;;;;;;21.08;36.21;100095.13;4924769;28;99643;-65
2023/07/05 05:42:38;;;;;;;;;;;;;;;21.29;36.07;100093.00;4923685;28;98027;-69
2023/07/05 05:45:05;;;;;;;;;;;;;;;21.69;35.91;100094.94;4924796;28;98026;-66
2023/07/05 05:47:32;;;;;;;;;;;;;;;22.00;35.88;100088.66;4925323;28;98920;-70
2023/07/05 05:49:58;;;;;;;;;;;;;;;22.27;35.74;100086.22;4925482;28;98079;-65
2023/07/05 05:52:25;;;;;;;;;;;;;;;22.39;35.67;100093.56;4924842;28;97860;-70
2023/07/05 05:54:51;;;;;;;;;;;;;;;22.38;35.92;100084.53;4922957;28;98468;-70
2023/07/05 05:57:18;;;;;;;;;;;;;;;22.35;36.11;100087.19;4922946;28;98269;-69
2023/07/05 05:59:45;;;;;;;;;;;;;;;22.37;36.11;100084.91;4922275;28;98108;-70
2023/07/05 06:02:11;;;;;;;;;;;;;;;22.32;36.31;100080.47;4916603;28;99617;-66
2023/07/05 06:04:37;;;;;;;;;;;;;;;22.26;36.24;100076.41;4914654;28;98048;-65
2023/07/05 06:07:04;;;;;;;;;;;;;;;22.26;36.31;100076.41;4923445;28;98132;-70
2023/07/05 06:09:36;;;;;;;;;;;;;;;22.32;36.40;100072.22;4919292;28;98376;-65
2023/07/05 06:12:03;;;;;;;;;;;;;;;22.47;36.23;100076.91;4938542;28;98393;-71
2023/07/05 06:14:29;;;;;;;;;;;;;;;22.65;36.17;100071.81;4922518;28;97986;-66
2023/07/05 06:16:55;;;;;;;;;;;;;;;22.71;35.90;100073.13;4928388;28;98121;-70
2023/07/05 06:19:22;;;;;;;;;;;;;;;22.73;36.26;100070.84;4924687;28;98155;-65
2023/07/05 06:21:48;;;;;;;;;;;;;;;22.75;36.03;100060.31;4917820;28;98362;-70
2023/07/05 06:24:15;;;;;;;;;;;;;;;22.78;36.33;100069.75;4919412;28;98379;-70
2023/07/05 06:26:41;;;;;;;;;;;;;;;22.82;36.17;100065.13;4923301;28;97997;-70
2023/07/05 06:29:08;;;;;;;;;;;;;;;22.88;36.20;100060.97;4934014;28;98699;-70
2023/07/05 06:31:35;;;;;;;;;;;;;;;23.02;36.11;100058.53;4921778;28;97999;-65
2023/07/05 06:34:01;;;;;;;;;;;;;;;23.03;36.17;100064.84;4937347;28;98106;-65
2023/07/05 06:36:28;;;;;;;;;;;;;;;23.07;35.95;100068.47;4920743;28;98043;-70
2023/07/05 06:38:54;;;;;;;;;;;;;;;23.26;35.85;100076.72;4919589;28;98266;-66
2023/07/05 06:41:21;;;;;;;;;;;;;;;24.58;34.95;100072.75;4939196;28;98332;-65
2023/07/05 06:43:47;;;;;;;;;;;;;;;24.64;34.99;100074.03;4919663;28;98006;-70
2023/07/05 06:46:14;;;;;;;;;;;;;;;25.66;34.35;100072.13;4935217;28;98566;-71
2023/07/05 06:48:41;;;;;;;;;;;;;;;26.46;34.05;100080.00;4922312;28;99950;-65
2023/07/05 06:51:08;;;;;;;;;;;;;;;27.40;33.46;100080.91;4916392;28;98314;-71
2023/07/05 06:53:35;;;;;;;;;;;;;;;27.89;33.35;100076.66;4921107;28;99504;-71
2023/07/05 06:56:01;;;;;;;;;;;;;;;28.92;33.03;100079.75;4921054;28;98052;-72
2023/07/05 06:58:28;;;;;;;;;;;;;;;29.73;32.37;100083.41;4932898;28;98072;-72
2023/07/05 07:00:54;;;;;;;;;;;;;;;29.30;33.48;100083.59;4923862;28;98213;-72
2023/07/05 07:03:21;;;;;;;;;;;;;;;28.78;33.91;100089.72;4923347;28;98076;-66
2023/07/05 07:05:54;;;;;;;;;;;;;;;28.47;34.08;100085.03;4922652;28;98298;-73
2023/07/05 07:08:22;;;;;;;;;;;;;;;28.21;34.49;100086.97;4925246;28;99239;-66
2023/07/05 07:10:48;;;;;;;;;;;;;;;28.06;34.53;100086.19;4923114;28;98272;-71
2023/07/05 07:13:15;;;;;;;;;;;;;;;27.92;34.66;100074.31;4919118;28;98052;-72
2023/07/05 07:15:41;;;;;;;;;;;;;;;27.93;34.37;100076.69;4920217;28;98288;-72
2023/07/05 07:18:11;;;;;;;;;;;;;;;28.29;33.99;100074.69;4934991;28;98053;-72
2023/07/05 07:20:38;;;;;;;;;;;;;;;29.07;33.82;100068.25;4935765;28;98693;-66
2023/07/05 07:23:05;;;;;;;;;;;;;;;29.74;32.93;100069.09;4923718;28;98537;-67
2023/07/05 07:25:31;;;;;;;;;;;;;;;30.06;33.19;100065.28;4924419;28;100404;-66
2023/07/05 07:27:57;;;;;;;;;;;;;;;30.24;32.86;100065.97;4920206;28;98130;-67
2023/07/05 07:30:24;;;;;;;;;;;;;;;30.06;33.20;100065.28;4920157;28;98081;-67
2023/07/05 07:32:50;;;;;;;;;;;;;;;29.93;33.59;100062.22;4922148;28;99481;-72
2023/07/05 07:35:17;;;;;;;;;;;;;;;30.13;33.45;100061.66;4922741;28;99527;-67
2023/07/05 07:37:44;;;;;;;;;;;;;;;29.82;33.72;100056.75;4924323;28;98121;-72
2023/07/05 07:40:10;;;;;;;;;;;;;;;29.44;34.16;100053.00;4917997;28;98153;-66
2023/07/05 07:42:36;;;;;;;;;;;;;;;29.08;34.36;100055.97;4929642;28;98879;-67
2023/07/05 07:45:03;;;;;;;;;;;;;;;28.99;34.46;100049.25;4920168;28;98103;-72
2023/07/05 07:47:29;;;;;;;;;;;;;;;28.90;34.25;100051.66;4941376;28;98076;-73
2023/07/05 07:49:55;;;;;;;;;;;;;;;28.84;34.38;100054.03;4925265;28;98325;-67
2023/07/05 07:52:21;;;;;;;;;;;;;;;28.86;34.41;100052.44;4918648;28;98454;-72
2023/07/05 07:54:48;;;;;;;;;;;;;;;28.90;34.23;100049.66;4922536;28;101506;-72
2023/07/05 07:57:15;;;;;;;;;;;;;;;28.78;34.56;100050.91;4941485;28;98326;-72
2023/07/05 07:59:41;;;;;;;;;;;;;;;28.78;34.40;100052.88;4927137;28;100180;-66
2023/07/05 08:02:12;;;;;;;;;;;;;;;29.50;33.65;100050.59;4924201;28;100228;-72
2023/07/05 08:04:45;;;;;;;;;;;;;;;31.92;31.84;100052.81;4925923;28;98200;-73
2023/07/05 08:07:11;;;;;;;;;;;;;;;31.52;32.38;100047.03;4924532;28;98386;-74
2023/07/05 08:09:37;;;;;;;;;;;;;;;32.30;32.15;100046.19;4916815;28;98132;-73
2023/07/05 08:12:04;;;;;;;;;;;;;;;32.31;32.28;100054.16;4922605;28;98361;-73
2023/07/05 08:14:31;;;;;;;;;;;;;;;31.67;33.15;100067.09;4923226;28;98191;-66
2023/07/05 08:16:58;;;;;;;;;;;;;;;31.14;33.58;100073.38;4940599;28;99502;-72
2023/07/05 08:19:24;;;;;;;;;;;;;;;31.03;33.71;100068.72;4920349;28;98362;-66
2023/07/05 08:21:50;;;;;;;;;;;;;;;31.09;33.47;100057.94;4925170;28;98131;-73
2023/07/05 08:24:17;;;;;;;;;;;;;;;31.22;33.46;100063.72;4923616;28;98447;-73
2023/07/05 08:26:44;;;;;;;;;;;;;;;30.92;33.70;100067.28;4925487;28;98257;-68
2023/07/05 08:29:11;;;;;;;;;;;;;;;30.50;33.93;100052.63;4921206;28;99219;-73
2023/07/05 08:31:37;;;;;;;;;;;;;;;30.05;34.29;100058.94;4921631;28;97873;-66
2023/07/05 08:34:04;;;;;;;;;;;;;;;29.64;34.43;100060.84;4925381;28;98028;-72
2023/07/05 08:36:35;;;;;;;;;;;;;;;29.40;34.79;100070.84;4924264;28;97886;-66
2023/07/05 08:39:03;;;;;;;;;;;;;;;29.48;34.61;100070.44;4916442;28;98028;-66
2023/07/05 08:41:41;;;;;;;;;;;;;;;29.71;34.38;100083.00;4925438;28;98074;-72
2023/07/05 08:44:39;;;;;;;;;;;;;;;29.76;34.25;100083.38;4952350;28;98121;-66
2023/07/05 08:47:08;;;;;;;;;;;;;;;29.73;34.32;100091.72;4936768;28;99566;-66
2023/07/05 08:49:59;;;;;;;;;;;;;;;29.61;34.27;100093.00;4956190;28;97991;-69
2023/07/05 08:52:31;;;;;;;;;;;;;;;29.72;34.26;100090.16;4945097;28;98022;-69
2023/07/05 08:54:59;;;;;;;;;;;;;;;30.17;33.95;100093.03;4942878;28;98506;-72
2023/07/05 08:57:33;;;;;;;;;;;;;;;30.61;33.65;100091.41;4940145;28;98704;-68
2023/07/05 09:00:08;;;;;;;;;;;;;;;31.00;33.31;100094.59;4952304;28;98128;-68
2023/07/05 09:02:35;;;;;;;;;;;;;;;31.31;33.14;100089.06;4928836;28;97851;-73
2023/07/05 09:05:01;;;;;;;;;;;;;;;31.71;32.95;100104.03;4924826;28;98079;-68
2023/07/05 09:07:30;;;;;;;;;;;;;;;32.24;32.60;100087.72;4925516;28;98161;-68
2023/07/05 09:10:07;;;;;;;;;;;;;;;32.06;32.95;100090.78;4950766;28;98280;-73
2023/07/05 09:12:38;;;;;;;;;;;;;;;31.97;33.14;100091.34;4937281;28;98265;-73
2023/07/05 09:15:16;;;;;;;;;;;;;;;31.80;33.17;100095.16;4952545;28;98026;-73
2023/07/05 09:17:53;;;;;;;;;;;;;;;31.82;33.56;100097.53;4949316;28;98009;-67
2023/07/05 09:20:52;;;;;;;;;;;;;;;31.74;33.18;100082.91;4941329;28;98051;-68
2023/07/05 09:23:46;;;;;;;;;;;;;;;31.53;33.68;100090.38;4927915;28;98662;-74
2023/07/05 09:26:23;;;;;;;;;;;;;;;31.72;33.60;100096.50;4922029;28;99146;-73
2023/07/05 09:29:10;;;;;;;;;;;;;;;31.31;33.80;100088.28;4936658;28;97969;-73
2023/07/05 09:31:36;;;;;;;;;;;;;;;30.71;34.50;100087.75;4957427;28;98298;-68
2023/07/05 09:34:36;;;;;;;;;;;;;;;30.27;34.60;100092.94;4921189;28;98253;-73
2023/07/05 09:37:13;;;;;;;;;;;;;;;30.03;34.62;100088.34;4937344;28;98105;-73
2023/07/05 09:39:50;;;;;;;;;;;;;;;29.74;34.88;100082.97;4946471;28;98374;-67
2023/07/05 09:42:26;;;;;;;;;;;;;;;29.55;35.09;100080.69;4945554;28;98205;-73
2023/07/05 09:44:53;;;;;;;;;;;;;;;29.31;34.81;100090.72;4940178;28;98529;-68
2023/07/05 09:47:20;;;;;;;;;;;;;;;29.12;34.79;100092.00;4926848;28;98371;-67
2023/07/05 09:49:46;;;;;;;;;;;;;;;28.85;35.32;100088.91;4943273;28;97935;-67
2023/07/05 09:52:13;;;;;;;;;;;;;;;28.64;35.00;100089.72;4916855;28;98054;-72
2023/07/05 09:54:40;;;;;;;;;;;;;;;28.54;34.96;100085.00;4943025;28;99440;-73
2023/07/05 09:57:09;;;;;;;;;;;;;;;28.59;35.08;100087.38;4920534;28;98243;-67
2023/07/05 09:59:36;;;;;;;;;;;;;;;28.88;34.90;100079.78;4920387;28;98274;-72
2023/07/05 10:02:20;;;;;;;;;;;;;;;29.00;34.61;100082.13;4921118;28;97915;-72
2023/07/05 10:04:58;;;;;;;;;;;;;;;29.19;34.12;100086.41;4939234;28;99516;-67
2023/07/05 10:07:35;;;;;;;;;;;;;;;29.87;33.98;100093.59;4942217;28;98317;-67
2023/07/05 10:10:03;;;;;;;;;;;;;;;30.51;33.26;100095.91;4927589;28;99919;-72
2023/07/05 10:12:37;;;;;;;;;;;;;;;30.86;33.14;100096.78;4938101;28;98085;-67
2023/07/05 10:15:16;;;;;;;;;;;;;;;30.96;33.39;100096.63;4924209;28;97862;-67
2023/07/05 10:17:44;;;;;;;;;;;;;;;30.67;33.70;100087.78;4933829;28;98272;-67
2023/07/05 10:20:18;;;;;;;;;;;;;;;30.48;33.71;100080.81;4925365;28;99643;-72
2023/07/05 10:22:45;;;;;;;;;;;;;;;30.45;33.90;100076.06;4940429;28;98176;-73
2023/07/05 10:25:19;;;;;;;;;;;;;;;30.03;34.48;100075.25;4933485;28;99444;-71
2023/07/05 10:27:51;;;;;;;;;;;;;;;29.57;34.88;100081.91;4917352;28;98166;-66
2023/07/05 10:30:21;;;;;;;;;;;;;;;29.14;34.86;100084.06;4943230;28;98354;-66
2023/07/05 10:32:51;;;;;;;;;;;;;;;28.82;34.97;100078.63;4926885;28;97999;-72
2023/07/05 10:35:20;;;;;;;;;;;;;;;28.67;35.30;100088.16;4922199;28;99074;-72
2023/07/05 10:37:47;;;;;;;;;;;;;;;28.89;34.95;100081.38;4948598;28;97919;-66
2023/07/05 10:40:13;;;;;;;;;;;;;;;29.42;34.03;100082.34;4921259;28;98550;-72
2023/07/05 10:42:45;;;;;;;;;;;;;;;30.01;33.62;100082.41;4921552;28;98662;-67
2023/07/05 10:45:14;;;;;;;;;;;;;;;30.50;33.70;100080.44;4949419;28;98722;-66
2023/07/05 10:47:41;;;;;;;;;;;;;;;30.67;33.62;100087.78;4952260;28;98780;-72
2023/07/05 10:50:09;;;;;;;;;;;;;;;30.42;33.88;100079.72;4920821;28;98692;-66
2023/07/05 10:52:46;;;;;;;;;;;;;;;30.20;34.32;100081.88;4940116;28;98860;-72
2023/07/05 10:55:19;;;;;;;;;;;;;;;29.93;34.68;100078.09;4956384;28;97976;-66
2023/07/05 10:57:58;;;;;;;;;;;;;;;29.72;34.34;100079.84;4936137;28;98532;-66
2023/07/05 11:00:37;;;;;;;;;;;;;;;29.58;34.86;100068.81;4934318;28;99597;-72
2023/07/05 11:03:11;;;;;;;;;;;;;;;29.82;34.65;100064.28;4940922;28;98149;-73
2023/07/05 11:05:48;;;;;;;;;;;;;;;30.76;33.25;100062.28;4952667;28;98094;-72
2023/07/05 11:08:26;;;;;;;;;;;;;;;31.41;33.08;100063.09;4937645;28;98511;-65
2023/07/05 11:10:52;;;;;;;;;;;;;;;31.73;32.84;100056.28;4949952;28;98243;-67
2023/07/05 11:13:20;;;;;;;;;;;;;;;31.69;33.06;100053.53;4926366;28;98091;-66
2023/07/05 11:15:47;;;;;;;;;;;;;;;31.70;33.01;100046.75;4927841;28;98549;-67
2023/07/05 11:18:18;;;;;;;;;;;;;;;31.93;33.22;100050.81;4925284;28;98012;-72
2023/07/05 11:20:53;;;;;;;;;;;;;;;32.43;32.76;100050.78;4936973;28;97973;-66
2023/07/05 11:23:42;;;;;;;;;;;;;;;32.44;33.01;100043.97;4943818;28;98025;-67
2023/07/05 11:26:09;;;;;;;;;;;;;;;32.40;33.13;100036.88;4955388;28;98418;-73
2023/07/05 11:28:38;;;;;;;;;;;;;;;32.96;32.75;100028.63;4936516;28;98162;-66
2023/07/05 11:31:05;;;;;;;;;;;;;;;33.16;32.53;100028.59;4936075;28;98008;-73
2023/07/05 11:33:32;;;;;;;;;;;;;;;32.79;32.92;100011.03;4942931;28;100076;-67
2023/07/05 11:36:29;;;;;;;;;;;;;;;32.70;33.29;100022.75;4919165;28;98110;-73
2023/07/05 11:38:57;;;;;;;;;;;;;;;33.83;31.89;100017.09;4945258;28;98203;-73
2023/07/05 11:41:27;;;;;;;;;;;;;;;33.84;32.64;100010.28;4919260;28;99837;-66
2023/07/05 11:44:01;;;;;;;;;;;;;;;33.16;32.93;100012.63;4943980;28;99580;-66
2023/07/05 11:46:40;;;;;;;;;;;;;;;33.01;33.44;99991.84;4942209;28;98046;-72
2023/07/05 11:49:21;;;;;;;;;;;;;;;34.23;32.03;100006.50;4942717;28;98250;-66
2023/07/05 11:51:58;;;;;;;;;;;;;;;34.37;32.26;100005.34;4957776;28;98500;-73
2023/07/05 11:54:30;;;;;;;;;;;;;;;35.28;31.69;100003.13;4946115;28;97818;-73
2023/07/05 11:56:56;;;;;;;;;;;;;;;35.53;31.46;99998.78;4922463;28;98200;-67
2023/07/05 11:59:23;;;;;;;;;;;;;;;35.81;31.58;100009.06;4919793;28;98206;-73
2023/07/05 12:01:50;;;;;;;;;;;;;;;36.20;31.47;100001.38;4924917;28;98269;-73
2023/07/05 12:04:18;;;;;;;;;;;;;;;36.14;32.04;99994.75;4925256;28;100381;-67
2023/07/05 12:06:45;;;;;;;;;;;;;;;36.43;31.55;99999.34;4942584;28;98608;-67
2023/07/05 12:09:29;;;;;;;;;;;;;;;36.46;31.75;100012.50;4943021;28;99876;-66
2023/07/05 12:11:56;;;;;;;;;;;;;;;36.80;31.83;100008.84;4919024;28;98262;-73
2023/07/05 12:14:22;;;;;;;;;;;;;;;36.91;31.91;100020.47;4926099;28;98291;-67
2023/07/05 12:16:49;;;;;;;;;;;;;;;37.03;31.50;100013.22;4924586;28;98164;-67
2023/07/05 12:19:21;;;;;;;;;;;;;;;36.83;31.73;100024.78;4926059;28;98011;-73
2023/07/05 12:21:55;;;;;;;;;;;;;;;36.88;31.88;100034.63;4932449;28;98128;-73
2023/07/05 12:24:21;;;;;;;;;;;;;;;36.31;32.26;100032.59;4921941;28;100251;-67
2023/07/05 12:26:47;;;;;;;;;;;;;;;35.64;32.64;100033.63;4927306;28;98947;-73
2023/07/05 12:29:25;;;;;;;;;;;;;;;35.03;33.06;100047.91;4921386;28;99102;-73
2023/07/05 12:32:05;;;;;;;;;;;;;;;34.63;33.48;100046.22;4944487;28;98118;-73
2023/07/05 12:34:32;;;;;;;;;;;;;;;34.34;33.83;100048.19;4943274;28;98059;-72
2023/07/05 12:36:58;;;;;;;;;;;;;;;34.06;33.58;100052.50;4929292;28;98661;-73
2023/07/05 12:39:25;;;;;;;;;;;;;;;33.67;34.11;100049.41;4941144;28;98215;-67
2023/07/05 12:42:05;;;;;;;;;;;;;;;33.18;34.47;100043.72;4945257;28;98058;-73
2023/07/05 12:44:34;;;;;;;;;;;;;;;32.70;34.52;100061.03;4926486;28;100148;-67
2023/07/05 12:47:16;;;;;;;;;;;;;;;32.38;34.26;100059.56;4925221;28;98143;-67